createdAt,value
2018-06-04T00:00:10.322Z,19.98
2018-06-04T00:02:39.430Z,19.76
2018-06-04T00:05:08.558Z,19.61
2018-06-04T00:07:37.670Z,19.65
2018-06-04T00:10:06.798Z,19.71
2018-06-04T00:12:35.890Z,19.38
2018-06-04T00:15:05.040Z,19.66
2018-06-04T00:17:34.158Z,19.64
2018-06-04T00:23:00.753Z,19.63
2018-06-04T00:25:29.868Z,19.44
2018-06-04T00:27:58.946Z,19.46
2018-06-04T00:30:28.034Z,19.36
2018-06-04T00:32:57.154Z,19.49
2018-06-04T00:35:26.250Z,19.23
2018-06-04T00:37:55.357Z,19.28
2018-06-04T00:40:24.454Z,19.25
2018-06-04T00:42:53.561Z,19.33
2018-06-04T00:45:22.661Z,19.28
2018-06-04T00:47:51.753Z,19.18
2018-06-04T00:50:20.872Z,19.26
2018-06-04T00:52:49.957Z,19.12
2018-06-04T00:55:19.058Z,19.04
2018-06-04T00:57:48.154Z,19.20
2018-06-04T01:00:17.242Z,19.31
2018-06-04T01:02:46.366Z,19.42
2018-06-04T01:05:15.453Z,19.26
2018-06-04T01:07:44.557Z,19.30
2018-06-04T01:10:13.658Z,19.21
2018-06-04T01:12:42.749Z,19.09
2018-06-04T01:15:11.879Z,19.16
2018-06-04T01:17:40.985Z,19.14
2018-06-04T01:20:10.079Z,18.95
2018-06-04T01:22:39.178Z,18.71
2018-06-04T01:25:08.289Z,18.87
2018-06-04T01:27:37.459Z,18.98
2018-06-04T01:30:06.545Z,19.03
2018-06-04T01:32:35.636Z,18.99
2018-06-04T01:35:04.753Z,18.84
2018-06-04T01:37:33.846Z,18.85
2018-06-04T01:40:02.962Z,18.85
2018-06-04T01:42:32.073Z,19.02
2018-06-04T01:45:01.169Z,18.85
2018-06-04T01:47:30.273Z,18.45
2018-06-04T01:49:59.387Z,18.50
2018-06-04T01:52:28.510Z,18.55
2018-06-04T01:54:57.598Z,18.46
2018-06-04T01:57:26.677Z,18.48
2018-06-04T01:59:55.778Z,18.69
2018-06-04T02:02:24.873Z,18.57
2018-06-04T02:04:53.997Z,18.43
2018-06-04T02:07:30.969Z,18.54
2018-06-04T02:10:00.088Z,18.47
2018-06-04T02:12:29.217Z,18.60
2018-06-04T02:14:58.310Z,18.65
2018-06-04T02:17:27.413Z,18.69
2018-06-04T02:19:56.577Z,18.57
2018-06-04T02:22:25.729Z,18.54
2018-06-04T02:24:55.109Z,18.28
2018-06-04T02:27:24.221Z,18.31
2018-06-04T02:29:53.345Z,18.36
2018-06-04T02:32:22.429Z,18.37
2018-06-04T02:34:51.541Z,18.32
2018-06-04T02:37:20.633Z,18.29
2018-06-04T02:39:49.737Z,18.50
2018-06-04T02:42:18.837Z,18.45
2018-06-04T02:44:47.925Z,18.43
2018-06-04T02:47:17.034Z,18.43
2018-06-04T02:49:46.138Z,18.41
2018-06-04T02:52:15.214Z,18.34
2018-06-04T02:54:44.330Z,18.37
2018-06-04T02:57:13.434Z,18.38
2018-06-04T02:59:42.548Z,18.36
2018-06-04T03:02:11.650Z,18.29
2018-06-04T03:04:40.739Z,18.34
2018-06-04T03:07:09.870Z,18.34
2018-06-04T03:09:38.982Z,18.33
2018-06-04T03:12:08.098Z,18.18
2018-06-04T03:14:37.206Z,18.05
2018-06-04T03:17:06.296Z,18.21
2018-06-04T03:19:35.393Z,18.22
2018-06-04T03:22:04.497Z,18.15
2018-06-04T03:24:33.606Z,18.12
2018-06-04T03:27:02.720Z,17.84
2018-06-04T03:29:31.825Z,17.93
2018-06-04T03:32:01.014Z,18.00
2018-06-04T03:34:30.102Z,18.08
2018-06-04T03:36:59.250Z,18.04
2018-06-04T03:39:28.369Z,17.98
2018-06-04T03:41:57.504Z,18.01
2018-06-04T03:44:26.617Z,17.90
2018-06-04T03:46:55.745Z,18.05
2018-06-04T03:49:24.897Z,17.90
2018-06-04T03:51:53.997Z,17.89
2018-06-04T03:54:23.118Z,17.86
2018-06-04T03:56:52.233Z,18.01
2018-06-04T03:59:21.354Z,17.97
2018-06-04T04:01:50.549Z,17.88
2018-06-04T04:04:19.585Z,17.93
2018-06-04T04:06:48.697Z,18.05
2018-06-04T04:09:17.818Z,18.15
2018-06-04T04:11:46.922Z,18.07
2018-06-04T04:14:16.026Z,18.09
2018-06-04T04:16:45.102Z,18.06
2018-06-04T04:19:14.200Z,18.06
2018-06-04T04:21:43.318Z,17.86
2018-06-04T04:24:12.497Z,17.85
2018-06-04T04:26:41.619Z,17.96
2018-06-04T04:29:10.758Z,18.05
2018-06-04T04:31:39.821Z,18.10
2018-06-04T04:34:08.925Z,18.08
2018-06-04T04:36:38.025Z,18.08
2018-06-04T04:39:08.973Z,18.10
2018-06-04T04:41:38.061Z,18.10
2018-06-04T04:44:07.153Z,18.11
2018-06-04T04:46:36.308Z,18.17
2018-06-04T04:49:05.386Z,18.10
2018-06-04T04:51:34.490Z,17.92
2018-06-04T04:54:03.593Z,18.02
2018-06-04T04:56:32.702Z,18.05
2018-06-04T04:59:01.793Z,18.17
2018-06-04T05:01:30.913Z,18.33
2018-06-04T05:04:00.062Z,18.37
2018-06-04T05:06:29.187Z,18.46
2018-06-04T05:08:58.348Z,18.48
2018-06-04T05:11:27.465Z,18.39
2018-06-04T05:13:56.574Z,18.49
2018-06-04T05:16:25.706Z,18.55
2018-06-04T05:18:54.897Z,18.52
2018-06-04T05:21:24.206Z,18.55
2018-06-04T05:23:53.325Z,18.53
2018-06-04T05:26:22.458Z,18.72
2018-06-04T05:28:51.606Z,18.57
2018-06-04T05:31:20.710Z,18.72
2018-06-04T05:33:49.830Z,18.80
2018-06-04T05:36:18.930Z,18.72
2018-06-04T05:38:48.024Z,18.83
2018-06-04T05:41:17.515Z,18.89
2018-06-04T05:43:46.625Z,18.97
2018-06-04T05:46:15.701Z,19.04
2018-06-04T05:48:44.826Z,19.08
2018-06-04T05:51:13.933Z,19.11
2018-06-04T05:53:43.045Z,19.06
2018-06-04T05:56:12.194Z,19.00
2018-06-04T05:58:41.253Z,18.99
2018-06-04T06:01:10.366Z,19.00
2018-06-04T06:03:39.454Z,19.18
2018-06-04T06:06:08.558Z,19.39
2018-06-04T06:08:37.689Z,19.37
2018-06-04T06:11:06.909Z,19.51
2018-06-04T06:13:36.002Z,19.51
2018-06-04T06:16:05.109Z,19.29
2018-06-04T06:18:34.229Z,19.31
2018-06-04T06:21:03.339Z,19.42
2018-06-04T06:23:32.409Z,19.59
2018-06-04T06:26:01.518Z,19.73
2018-06-04T06:28:30.634Z,19.87
2018-06-04T06:30:59.757Z,20.02
2018-06-04T06:33:28.893Z,20.34
2018-06-04T06:35:57.990Z,20.27
2018-06-04T06:38:27.118Z,20.36
2018-06-04T06:40:56.249Z,20.57
2018-06-04T06:43:25.358Z,20.57
2018-06-04T06:45:54.446Z,20.83
2018-06-04T06:48:23.581Z,20.72
2018-06-04T06:50:52.697Z,20.67
2018-06-04T06:53:21.805Z,20.58
2018-06-04T06:55:50.934Z,20.83
2018-06-04T06:58:20.077Z,21.53
2018-06-04T07:00:49.170Z,21.76
2018-06-04T07:03:18.418Z,21.43
2018-06-04T07:05:47.533Z,21.62
2018-06-04T07:08:16.679Z,21.72
2018-06-04T07:10:45.821Z,22.04
2018-06-04T07:13:14.945Z,22.01
2018-06-04T07:15:44.063Z,22.74
2018-06-04T07:18:13.214Z,22.56
2018-06-04T07:20:42.334Z,23.02
2018-06-04T07:23:11.417Z,23.30
2018-06-04T07:25:40.521Z,22.67
2018-06-04T07:28:09.634Z,23.88
2018-06-04T07:30:38.729Z,24.61
2018-06-04T07:33:07.839Z,23.71
2018-06-04T07:35:36.962Z,23.56
2018-06-04T07:38:06.086Z,23.69
2018-06-04T07:40:35.189Z,23.49
2018-06-04T07:43:04.306Z,24.08
2018-06-04T07:45:33.425Z,24.11
2018-06-04T07:48:02.526Z,25.55
2018-06-04T07:50:31.618Z,25.87
2018-06-04T07:53:00.739Z,25.63
2018-06-04T07:55:29.837Z,25.53
2018-06-04T07:57:58.974Z,25.52
2018-06-04T08:00:28.101Z,25.52
2018-06-04T08:02:57.240Z,25.95
2018-06-04T08:05:26.362Z,26.89
2018-06-04T08:07:55.534Z,26.33
2018-06-04T08:10:24.671Z,25.86
2018-06-04T08:12:53.829Z,25.55
2018-06-04T08:15:22.886Z,26.18
2018-06-04T08:17:52.030Z,26.16
2018-06-04T08:20:21.112Z,26.31
2018-06-04T08:22:50.247Z,26.41
2018-06-04T08:25:19.338Z,26.45
2018-06-04T08:27:48.461Z,26.71
2018-06-04T08:30:17.582Z,26.28
2018-06-04T08:32:46.694Z,26.61
2018-06-04T08:35:15.813Z,26.18
2018-06-04T08:37:44.906Z,26.07
2018-06-04T08:40:14.076Z,26.81
2018-06-04T08:42:43.166Z,26.66
2018-06-04T08:45:12.266Z,26.65
2018-06-04T08:47:41.394Z,26.59
2018-06-04T08:50:10.494Z,26.60
2018-06-04T08:52:39.617Z,26.99
2018-06-04T08:55:08.762Z,26.76
2018-06-04T08:57:37.994Z,27.09
2018-06-04T09:00:07.238Z,27.68
2018-06-04T09:02:36.329Z,28.34
2018-06-04T09:05:05.534Z,28.46
2018-06-04T09:07:34.713Z,28.40
2018-06-04T09:10:03.832Z,28.86
2018-06-04T09:12:32.937Z,28.70
2018-06-04T09:15:02.074Z,29.62
2018-06-04T09:17:31.176Z,29.28
2018-06-04T09:20:00.297Z,29.07
2018-06-04T09:22:29.413Z,27.89
2018-06-04T09:24:58.550Z,27.08
2018-06-04T09:27:27.667Z,28.12
2018-06-04T09:29:56.781Z,28.51
2018-06-04T09:32:25.926Z,28.15
2018-06-04T09:34:55.046Z,28.60
2018-06-04T09:37:24.170Z,27.98
2018-06-04T09:39:53.263Z,27.63
2018-06-04T09:42:22.409Z,28.52
2018-06-04T09:44:51.530Z,28.82
2018-06-04T09:47:20.658Z,28.80
2018-06-04T09:49:49.773Z,28.39
2018-06-04T09:52:18.882Z,28.49
2018-06-04T09:54:47.981Z,28.97
2018-06-04T09:57:17.118Z,28.26
2018-06-04T09:59:46.218Z,28.59
2018-06-04T10:02:15.338Z,28.59
2018-06-04T10:04:44.459Z,27.85
2018-06-04T10:07:13.578Z,27.63
2018-06-04T10:09:42.694Z,28.26
2018-06-04T10:12:11.821Z,27.84
2018-06-04T10:14:40.942Z,28.78
2018-06-04T10:17:10.031Z,28.38
2018-06-04T10:19:39.137Z,28.18
2018-06-04T10:22:08.255Z,28.68
2018-06-04T10:24:37.338Z,28.06
2018-06-04T10:27:06.501Z,27.67
2018-06-04T10:29:35.610Z,27.61
2018-06-04T10:32:04.714Z,28.38
2018-06-04T10:34:33.837Z,28.12
2018-06-04T10:37:03.002Z,28.05
2018-06-04T10:39:32.102Z,28.33
2018-06-04T10:42:01.198Z,27.72
2018-06-04T10:47:27.694Z,28.49
2018-06-04T10:49:56.796Z,28.32
2018-06-04T10:52:26.853Z,28.58
2018-06-04T10:54:55.949Z,28.66
2018-06-04T10:57:25.093Z,28.86
2018-06-04T10:59:54.209Z,27.86
2018-06-04T11:02:23.301Z,27.92
2018-06-04T11:04:52.434Z,28.11
2018-06-04T11:07:21.554Z,27.90
2018-06-04T11:09:50.657Z,27.66
2018-06-04T11:12:19.802Z,27.98
2018-06-04T11:14:48.887Z,28.30
2018-06-04T11:17:18.010Z,28.14
2018-06-04T11:19:47.101Z,28.04
2018-06-04T11:22:16.214Z,28.11
2018-06-04T11:24:45.317Z,28.28
2018-06-04T11:27:14.419Z,27.26
2018-06-04T11:29:43.537Z,27.98
2018-06-04T11:32:12.633Z,28.39
2018-06-04T11:34:41.749Z,28.22
2018-06-04T11:37:10.853Z,28.71
2018-06-04T11:39:39.942Z,28.98
2018-06-04T11:42:09.049Z,29.13
2018-06-04T11:44:38.178Z,29.45
2018-06-04T11:47:07.258Z,29.47
2018-06-04T11:49:36.393Z,29.51
2018-06-04T11:52:05.490Z,29.67
2018-06-04T11:54:34.590Z,29.83
2018-06-04T11:57:03.693Z,29.29
2018-06-04T11:59:32.778Z,29.17
2018-06-04T12:02:01.877Z,28.77
2018-06-04T12:04:30.973Z,29.29
2018-06-04T12:07:00.194Z,29.07
2018-06-04T12:09:29.289Z,28.15
2018-06-04T12:11:58.433Z,28.23
2018-06-04T12:14:27.562Z,28.84
2018-06-04T12:16:56.677Z,28.83
2018-06-04T12:19:25.793Z,28.23
2018-06-04T12:21:54.898Z,28.80
2018-06-04T12:24:24.094Z,28.28
2018-06-04T12:26:54.253Z,28.17
2018-06-04T12:29:23.345Z,27.95
2018-06-04T12:31:52.518Z,27.73
2018-06-04T12:34:21.621Z,27.54
2018-06-04T12:36:50.738Z,27.29
2018-06-04T12:39:19.845Z,27.53
2018-06-04T12:41:48.941Z,28.01
2018-06-04T12:44:18.045Z,28.51
2018-06-04T12:46:47.193Z,28.92
2018-06-04T12:49:16.272Z,28.90
2018-06-04T12:51:45.378Z,28.48
2018-06-04T12:54:14.460Z,28.19
2018-06-04T12:56:43.580Z,28.14
2018-06-04T12:59:12.981Z,28.55
2018-06-04T13:01:42.085Z,28.85
2018-06-04T13:04:11.186Z,28.64
2018-06-04T13:06:40.265Z,28.74
2018-06-04T13:09:09.396Z,28.48
2018-06-04T13:11:38.505Z,28.06
2018-06-04T13:14:07.602Z,28.56
2018-06-04T13:16:36.746Z,28.39
2018-06-04T13:19:05.844Z,28.88
2018-06-04T13:21:34.975Z,29.07
2018-06-04T13:24:04.039Z,29.54
2018-06-04T13:26:33.118Z,29.48
2018-06-04T13:29:02.213Z,29.47
2018-06-04T13:31:31.292Z,29.44
2018-06-04T13:34:00.413Z,28.70
2018-06-04T13:36:29.545Z,28.63
2018-06-04T13:38:58.661Z,29.02
2018-06-04T13:41:27.829Z,29.30
2018-06-04T13:43:56.941Z,29.37
2018-06-04T13:46:26.412Z,29.59
2018-06-04T13:48:55.602Z,29.79
2018-06-04T13:51:24.722Z,30.19
2018-06-04T13:53:53.823Z,30.32
2018-06-04T13:56:22.983Z,30.01
2018-06-04T13:58:52.045Z,30.22
2018-06-04T14:01:21.172Z,29.93
2018-06-04T14:03:50.282Z,29.90
2018-06-04T14:06:19.379Z,29.62
2018-06-04T14:08:48.525Z,29.83
2018-06-04T14:11:17.647Z,29.76
2018-06-04T14:13:46.702Z,29.71
2018-06-04T14:16:15.794Z,30.10
2018-06-04T14:18:44.931Z,30.07
2018-06-04T14:21:14.044Z,30.18
2018-06-04T14:23:43.160Z,30.23
2018-06-04T14:26:12.276Z,29.97
2018-06-04T14:28:41.393Z,29.96
2018-06-04T14:31:10.491Z,29.70
2018-06-04T14:33:39.594Z,29.70
2018-06-04T14:36:08.690Z,29.44
2018-06-04T14:38:37.791Z,29.62
2018-06-04T14:41:06.869Z,29.85
2018-06-04T14:43:36.831Z,29.82
2018-06-04T14:46:05.901Z,29.93
2018-06-04T14:48:35.025Z,30.16
2018-06-04T14:51:04.114Z,29.85
2018-06-04T14:53:33.220Z,29.84
2018-06-04T14:56:02.309Z,29.85
2018-06-04T14:58:31.398Z,29.90
2018-06-04T15:01:00.520Z,29.71
2018-06-04T15:03:29.601Z,29.57
2018-06-04T15:05:58.837Z,29.72
2018-06-04T15:08:27.976Z,29.67
2018-06-04T15:10:57.061Z,29.50
2018-06-04T15:13:26.281Z,29.61
2018-06-04T15:15:55.383Z,29.38
2018-06-04T15:18:24.510Z,29.55
2018-06-04T15:20:53.635Z,29.15
2018-06-04T15:23:22.716Z,29.24
2018-06-04T15:25:51.842Z,29.47
2018-06-04T15:28:20.941Z,29.49
2018-06-04T15:30:50.061Z,29.72
2018-06-04T15:33:19.149Z,29.70
2018-06-04T15:35:48.287Z,29.70
2018-06-04T15:38:17.365Z,29.31
2018-06-04T15:40:46.465Z,29.50
2018-06-04T15:43:15.557Z,29.44
2018-06-04T15:45:44.661Z,29.47
2018-06-04T15:48:13.785Z,29.49
2018-06-04T15:50:42.894Z,29.42
2018-06-04T15:53:12.241Z,29.45
2018-06-04T15:55:41.337Z,29.13
2018-06-04T15:58:10.413Z,29.11
2018-06-04T16:00:39.513Z,29.18
2018-06-04T16:03:08.670Z,29.12
2018-06-04T16:05:37.725Z,28.95
2018-06-04T16:08:06.841Z,29.30
2018-06-04T16:10:35.953Z,29.14
2018-06-04T16:13:05.061Z,29.17
2018-06-04T16:15:34.169Z,29.15
2018-06-04T16:18:03.262Z,29.05
2018-06-04T16:20:32.357Z,28.84
2018-06-04T16:23:01.513Z,28.88
2018-06-04T16:25:30.614Z,28.77
2018-06-04T16:27:59.737Z,28.66
2018-06-04T16:30:28.841Z,28.39
2018-06-04T16:32:57.951Z,28.26
2018-06-04T16:35:27.065Z,28.27
2018-06-04T16:37:56.152Z,28.37
2018-06-04T16:40:25.266Z,28.47
2018-06-04T16:42:54.374Z,28.44
2018-06-04T16:45:23.777Z,28.32
2018-06-04T16:47:52.885Z,28.38
2018-06-04T16:50:22.037Z,28.39
2018-06-04T16:52:51.084Z,28.41
2018-06-04T16:55:20.185Z,28.09
2018-06-04T16:57:49.292Z,28.08
2018-06-04T17:00:18.385Z,28.06
2018-06-04T17:02:47.502Z,28.08
2018-06-04T17:05:16.573Z,27.98
2018-06-04T17:07:45.677Z,27.69
2018-06-04T17:10:14.782Z,27.66
2018-06-04T17:12:43.860Z,27.78
2018-06-04T17:15:12.973Z,27.61
2018-06-04T17:17:42.090Z,27.62
2018-06-04T17:20:11.209Z,27.61
2018-06-04T17:22:40.339Z,27.59
2018-06-04T17:25:09.436Z,27.48
2018-06-04T17:27:38.545Z,27.51
2018-06-04T17:30:07.669Z,27.41
2018-06-04T17:32:36.793Z,27.44
2018-06-04T17:35:05.893Z,27.39
2018-06-04T17:37:34.981Z,27.39
2018-06-04T17:40:04.169Z,27.39
2018-06-04T17:42:33.249Z,27.40
2018-06-04T17:45:02.408Z,27.37
2018-06-04T17:47:31.425Z,27.28
2018-06-04T17:50:00.537Z,27.30
2018-06-04T17:52:29.662Z,27.33
2018-06-04T17:54:58.791Z,27.36
2018-06-04T17:57:27.918Z,27.21
2018-06-04T17:59:57.015Z,27.10
2018-06-04T18:02:26.188Z,27.01
2018-06-04T18:04:55.618Z,26.86
2018-06-04T18:07:24.741Z,26.70
2018-06-04T18:09:53.833Z,26.62
2018-06-04T18:12:22.934Z,26.59
2018-06-04T18:14:52.137Z,26.39
2018-06-04T18:17:21.248Z,26.25
2018-06-04T18:19:50.349Z,26.12
2018-06-04T18:22:19.501Z,26.25
2018-06-04T18:24:48.589Z,26.21
2018-06-04T18:27:17.797Z,26.21
2018-06-04T18:29:46.849Z,26.23
2018-06-04T18:32:16.102Z,26.20
2018-06-04T18:34:45.482Z,25.93
2018-06-04T18:37:14.605Z,25.85
2018-06-04T18:39:43.746Z,25.99
2018-06-04T18:42:12.908Z,25.84
2018-06-04T18:44:42.028Z,25.75
2018-06-04T18:47:11.174Z,25.72
2018-06-04T18:49:40.287Z,25.77
2018-06-04T18:52:09.393Z,25.66
2018-06-04T18:54:38.501Z,25.70
2018-06-04T18:57:07.601Z,25.64
2018-06-04T18:59:36.718Z,25.67
2018-06-04T19:02:05.889Z,25.58
2018-06-04T19:04:36.117Z,25.52
2018-06-04T19:07:05.233Z,25.43
2018-06-04T19:09:34.325Z,25.44
2018-06-04T19:12:03.438Z,25.31
2018-06-04T19:14:32.540Z,25.20
2018-06-04T19:17:01.668Z,25.14
2018-06-04T19:19:30.796Z,25.22
2018-06-04T19:21:59.937Z,25.17
2018-06-04T19:24:29.061Z,25.19
2018-06-04T19:26:58.257Z,25.20
2018-06-04T19:29:27.305Z,25.07
2018-06-04T19:31:56.481Z,24.97
2018-06-04T19:34:25.604Z,24.99
2018-06-04T19:36:54.735Z,25.02
2018-06-04T19:39:23.840Z,24.97
2018-06-04T19:41:52.967Z,24.84
2018-06-04T19:44:22.066Z,24.70
2018-06-04T19:46:51.194Z,24.74
2018-06-04T19:49:20.312Z,24.76
2018-06-04T19:51:49.411Z,24.75
2018-06-04T19:54:18.527Z,24.70
2018-06-04T19:56:47.625Z,24.77
2018-06-04T19:59:16.729Z,24.73
2018-06-04T20:01:45.841Z,24.58
2018-06-04T20:04:14.953Z,24.54
2018-06-04T20:06:44.073Z,24.40
2018-06-04T20:09:13.189Z,24.23
2018-06-04T20:11:42.290Z,24.18
2018-06-04T20:14:11.381Z,24.23
2018-06-04T20:16:40.501Z,24.30
2018-06-04T20:19:09.617Z,24.37
2018-06-04T20:21:38.762Z,24.20
2018-06-04T20:24:07.877Z,24.17
2018-06-04T20:26:37.001Z,24.14
2018-06-04T20:29:06.110Z,23.99
2018-06-04T20:31:35.187Z,23.90
2018-06-04T20:34:04.320Z,23.89
2018-06-04T20:36:33.455Z,23.87
2018-06-04T20:39:02.533Z,23.90
2018-06-04T20:41:31.629Z,23.76
2018-06-04T20:44:00.736Z,23.67
2018-06-04T20:46:29.817Z,23.70
2018-06-04T20:48:58.944Z,23.66
2018-06-04T20:51:28.073Z,23.66
2018-06-04T20:53:57.162Z,23.76
2018-06-04T20:56:26.299Z,23.67
2018-06-04T20:58:55.394Z,23.58
2018-06-04T21:01:24.506Z,23.58
2018-06-04T21:03:53.605Z,23.42
2018-06-04T21:06:22.741Z,23.57
2018-06-04T21:08:52.153Z,23.47
2018-06-04T21:11:21.281Z,23.38
2018-06-04T21:13:50.419Z,23.36
2018-06-04T21:16:19.484Z,23.34
2018-06-04T21:18:48.594Z,23.31
2018-06-04T21:21:17.701Z,23.33
2018-06-04T21:23:46.817Z,23.32
2018-06-04T21:26:15.977Z,23.30
2018-06-04T21:28:45.069Z,23.21
2018-06-04T21:31:14.162Z,23.08
2018-06-04T21:33:43.293Z,22.97
2018-06-04T21:36:12.417Z,23.10
2018-06-04T21:38:41.549Z,22.99
2018-06-04T21:41:10.658Z,23.07
2018-06-04T21:43:39.773Z,23.00
2018-06-04T21:46:08.861Z,23.08
2018-06-04T21:48:38.017Z,23.10
2018-06-04T21:51:07.122Z,23.21
2018-06-04T21:53:36.221Z,23.09
2018-06-04T21:56:05.353Z,22.99
2018-06-04T21:58:34.454Z,22.81
2018-06-04T22:01:03.652Z,22.78
2018-06-04T22:03:32.745Z,22.72
2018-06-04T22:06:01.867Z,22.70
2018-06-04T22:08:31.033Z,22.61
2018-06-04T22:11:00.049Z,22.54
2018-06-04T22:13:29.185Z,22.58
2018-06-04T22:15:58.317Z,22.57
2018-06-04T22:18:27.437Z,22.45
2018-06-04T22:20:56.549Z,22.64
2018-06-04T22:23:25.657Z,22.57
2018-06-04T22:25:54.740Z,22.43
2018-06-04T22:28:23.863Z,22.37
2018-06-04T22:30:52.997Z,22.28
2018-06-04T22:33:22.114Z,22.29
2018-06-04T22:35:51.225Z,22.28
2018-06-04T22:38:20.321Z,22.30
2018-06-04T22:40:49.417Z,22.22
2018-06-04T22:43:18.553Z,22.11
2018-06-04T22:45:47.658Z,22.12
2018-06-04T22:48:16.736Z,22.09
2018-06-04T22:50:45.832Z,22.01
2018-06-04T22:53:14.935Z,21.94
2018-06-04T22:55:44.041Z,22.03
2018-06-04T22:58:13.142Z,22.06
2018-06-04T23:00:42.274Z,21.98
2018-06-04T23:03:11.368Z,22.16
2018-06-04T23:05:40.497Z,22.05
2018-06-04T23:08:09.597Z,22.06
2018-06-04T23:10:38.693Z,22.13
2018-06-04T23:13:07.796Z,21.97
2018-06-04T23:15:36.909Z,21.97
2018-06-04T23:18:06.026Z,21.85
2018-06-04T23:20:35.136Z,21.72
2018-06-04T23:23:04.285Z,21.62
2018-06-04T23:25:33.385Z,21.79
2018-06-04T23:28:02.498Z,21.73
2018-06-04T23:30:31.846Z,21.75
2018-06-04T23:33:00.958Z,21.77
2018-06-04T23:35:30.053Z,21.77
2018-06-04T23:37:59.173Z,21.59
2018-06-04T23:40:28.264Z,21.56
2018-06-04T23:42:57.360Z,21.44
2018-06-04T23:45:26.517Z,21.38
2018-06-04T23:47:55.617Z,21.33
2018-06-04T23:50:24.745Z,21.32
2018-06-04T23:52:53.860Z,21.33
2018-06-04T23:55:22.972Z,21.41
2018-06-04T23:57:52.078Z,21.49
